Time;durP1;ratioP1;P1;durP2;ratioP2;P2;SDS_P1;SDS_P2;PMS_P1;PMS_P2;Temp;Humidity;BMP_temperature;BMP_pressure;BME280_temperature;BME280_humidity;BME280_pressure;Samples;Min_cycle;Max_cycle;Signal;HPM_P1;HPM_P2
2024/03/13 00:02:15;;;;;;;13.25;6.80;;;;;;;-1.63;52.70;100989.81;4794277;29;20039;-70
2024/03/13 00:04:43;;;;;;;13.20;6.57;;;;;;;-1.58;52.99;100983.31;4796939;29;20466;-70
2024/03/13 00:07:15;;;;;;;15.45;6.30;;;;;;;-1.81;52.87;100946.22;4778639;29;20473;-69
2024/03/13 00:09:50;;;;;;;10.77;7.07;;;;;;;-1.76;52.87;100952.47;4784118;29;20050;-70
2024/03/13 00:12:18;;;;;;;14.88;7.13;;;;;;;-1.64;53.13;100966.75;4799758;29;20042;-72
2024/03/13 00:14:49;;;;;;;16.45;7.95;;;;;;;-1.75;52.35;100959.31;4813030;29;20053;-70
2024/03/13 00:17:20;;;;;;;15.68;6.63;;;;;;;-1.55;53.22;100982.63;4798977;29;20066;-69
2024/03/13 00:19:48;;;;;;;16.05;6.57;;;;;;;-1.87;52.60;100940.75;4801263;29;20049;-72
2024/03/13 00:22:18;;;;;;;18.38;7.78;;;;;;;-1.93;52.73;100919.97;4778091;29;20050;-72
2024/03/13 00:24:48;;;;;;;12.60;6.67;;;;;;;-1.63;52.51;100973.63;4802237;29;20078;-75
2024/03/13 00:27:17;;;;;;;22.05;7.95;;;;;;;-2.01;52.75;100906.75;4798883;29;20126;-72
2024/03/13 00:29:47;;;;;;;15.35;7.22;;;;;;;-1.80;52.73;100949.66;4767099;29;20047;-75
2024/03/13 00:32:17;;;;;;;15.45;7.20;;;;;;;-1.69;52.40;100976.69;4801897;29;20282;-75
2024/03/13 00:34:47;;;;;;;21.70;8.65;;;;;;;-1.88;52.57;100949.19;4786517;29;20398;-75
2024/03/13 00:37:15;;;;;;;18.10;7.68;;;;;;;-2.10;52.77;100912.19;4783955;29;20502;-75
2024/03/13 00:39:42;;;;;;;16.27;7.07;;;;;;;-2.08;52.43;100925.00;4803190;29;20096;-73
2024/03/13 00:42:13;;;;;;;16.55;8.20;;;;;;;-2.18;52.66;100921.94;4801796;29;20051;-74
2024/03/13 00:44:40;;;;;;;15.60;7.55;;;;;;;-2.27;52.74;100900.97;4786981;29;20051;-73
2024/03/13 00:47:08;;;;;;;16.25;7.13;;;;;;;-2.27;52.93;100917.16;4784797;29;20051;-72
2024/03/13 00:49:35;;;;;;;16.40;6.72;;;;;;;-2.24;52.51;100929.19;4772314;29;20058;-73
2024/03/13 00:52:01;;;;;;;21.38;8.43;;;;;;;-1.93;52.30;100989.75;4797277;29;20051;-74
2024/03/13 00:54:30;;;;;;;14.82;6.50;;;;;;;-2.13;52.56;100963.91;4771895;29;20051;-73
2024/03/13 00:56:59;;;;;;;16.70;7.00;;;;;;;-2.24;52.32;100948.75;4775842;29;20062;-73
2024/03/13 00:59:29;;;;;;;12.55;6.68;;;;;;;-2.16;52.51;100971.38;4811727;29;20066;-72
2024/03/13 01:01:56;;;;;;;12.75;6.38;;;;;;;-1.99;52.82;100984.25;4791002;29;20047;-72
2024/03/13 01:04:26;;;;;;;15.95;6.30;;;;;;;-2.06;52.99;100977.91;4796983;29;21752;-73
2024/03/13 01:06:54;;;;;;;12.50;6.45;;;;;;;-2.16;53.07;100966.25;4797116;29;20050;-73
2024/03/13 01:09:23;;;;;;;15.15;6.93;;;;;;;-2.10;52.78;100981.06;4772436;29;20039;-75
2024/03/13 01:11:53;;;;;;;13.38;6.50;;;;;;;-2.50;53.08;100928.47;4810319;29;20055;-72
2024/03/13 01:14:22;;;;;;;12.20;6.03;;;;;;;-2.20;53.16;100986.38;4797873;29;20145;-71
2024/03/13 01:16:51;;;;;;;16.65;6.55;;;;;;;-2.39;52.84;100933.38;4798456;29;20103;-71
2024/03/13 01:19:21;;;;;;;12.68;6.57;;;;;;;-2.47;52.97;100926.13;4786134;29;20038;-71
2024/03/13 01:21:53;;;;;;;16.58;6.50;;;;;;;-2.28;52.67;100962.94;4799192;29;20046;-71
2024/03/13 01:24:20;;;;;;;11.98;6.30;;;;;;;-2.49;53.16;100931.91;4769965;29;20039;-71
2024/03/13 01:26:49;;;;;;;13.30;6.07;;;;;;;-2.15;52.98;100993.53;4796790;29;20062;-71
2024/03/13 01:29:16;;;;;;;13.73;6.55;;;;;;;-2.15;53.13;100996.09;4769796;29;20046;-71
2024/03/13 01:31:42;;;;;;;15.95;5.97;;;;;;;-2.37;52.68;100960.72;4777671;29;20502;-70
2024/03/13 01:34:10;;;;;;;13.52;6.10;;;;;;;-2.49;52.98;100954.88;4791192;29;20039;-71
2024/03/13 01:39:22;;;;;;;11.70;6.18;;;;;;;-2.50;52.91;100976.91;4794632;29;20526;-71
2024/03/13 01:55:49;;;;;;;13.15;6.28;;;;;;;-2.42;53.57;101011.44;4793757;29;20265;-71
2024/03/13 01:58:29;;;;;;;12.38;5.53;;;;;;;-2.66;53.22;100957.25;4796780;29;20079;-73
2024/03/13 02:03:42;;;;;;;13.27;6.30;;;;;;;-2.47;52.88;101005.16;4781176;29;20047;-71
2024/03/13 02:06:11;;;;;;;13.45;5.47;;;;;;;-2.80;52.95;100960.56;4794078;29;20507;-72
2024/03/13 02:08:40;;;;;;;11.35;5.70;;;;;;;-2.48;53.21;101018.69;4763177;29;20137;-71
2024/03/13 02:11:06;;;;;;;19.58;6.20;;;;;;;-2.59;53.27;101006.94;4792754;29;20077;-70
2024/03/13 02:13:32;;;;;;;17.85;6.35;;;;;;;-2.64;53.22;100995.56;4778076;29;20529;-72
2024/03/13 02:15:58;;;;;;;14.93;6.28;;;;;;;-2.68;53.20;100988.50;4808802;29;20499;-71
2024/03/13 02:18:30;;;;;;;13.27;6.05;;;;;;;-2.72;53.51;100995.94;4786835;29;20806;-71
2024/03/13 02:20:59;;;;;;;12.73;6.32;;;;;;;-3.05;52.79;100957.34;4779227;29;20051;-71
2024/03/13 02:23:30;;;;;;;16.23;7.40;;;;;;;-2.74;53.09;101020.44;4777386;29;20114;-71
2024/03/13 02:25:57;;;;;;;18.88;7.65;;;;;;;-2.81;52.92;101017.41;4792632;29;20061;-71
2024/03/13 02:28:33;;;;;;;16.65;6.78;;;;;;;-2.89;53.00;101016.91;4777781;29;20487;-70
2024/03/13 02:31:00;;;;;;;14.13;6.55;;;;;;;-2.89;53.42;101016.91;4763159;29;20166;-71
2024/03/13 02:33:27;;;;;;;12.25;5.90;;;;;;;-2.87;53.55;101034.06;4793321;29;20045;-71
2024/03/13 02:35:54;;;;;;;21.63;6.95;;;;;;;-3.25;53.01;100963.66;4791705;29;20039;-71
2024/03/13 02:38:21;;;;;;;14.90;6.65;;;;;;;-2.98;53.40;101040.13;4764629;29;20043;-70
2024/03/13 02:40:47;;;;;;;18.60;6.35;;;;;;;-3.54;53.67;100946.47;4793643;29;20505;-71
2024/03/13 02:43:13;;;;;;;13.40;6.43;;;;;;;-3.40;53.56;100957.56;4792058;29;20035;-71
2024/03/13 02:45:43;;;;;;;13.95;6.30;;;;;;;-3.04;53.50;101012.59;4780383;29;20041;-71
2024/03/13 02:48:11;;;;;;;17.60;6.60;;;;;;;-3.37;53.75;100966.28;4777046;29;20529;-69
2024/03/13 02:50:41;;;;;;;14.27;6.70;;;;;;;-3.05;53.63;101017.56;4787680;29;20072;-72
2024/03/13 02:53:10;;;;;;;15.25;6.32;;;;;;;-3.27;54.08;100972.88;4790897;29;20553;-72
2024/03/13 02:55:36;;;;;;;13.95;6.25;;;;;;;-3.27;53.86;100977.97;4795065;29;20055;-71
2024/03/13 02:58:03;;;;;;;12.85;5.93;;;;;;;-2.96;53.77;101028.38;4791615;29;20514;-71
2024/03/13 03:00:30;;;;;;;13.98;6.40;;;;;;;-3.09;54.04;100993.56;4776696;30;20052;-72
2024/03/13 03:02:57;;;;;;;15.65;6.72;;;;;;;-3.08;53.99;100992.78;4761780;30;20058;-71
2024/03/13 03:05:24;;;;;;;11.30;6.25;;;;;;;-3.04;53.96;100998.97;4774891;29;20475;-72
2024/03/13 03:07:51;;;;;;;16.73;6.75;;;;;;;-3.13;53.53;100988.19;4763835;30;20503;-71
2024/03/13 03:10:18;;;;;;;16.98;7.40;;;;;;;-2.95;54.02;101024.16;4778525;29;20043;-70
2024/03/13 03:12:44;;;;;;;15.75;7.47;;;;;;;-3.12;54.01;101013.75;4762844;29;20130;-71
2024/03/13 03:15:11;;;;;;;12.80;6.65;;;;;;;-2.95;54.01;101030.13;4777090;29;20046;-73
2024/03/13 03:17:37;;;;;;;20.80;12.65;;;;;;;-3.06;53.90;101015.81;4779448;29;20073;-72
2024/03/13 03:20:04;;;;;;;14.98;8.38;;;;;;;-3.21;54.00;100998.75;4779715;29;20077;-70
2024/03/13 03:22:30;;;;;;;21.02;8.63;;;;;;;-3.54;54.13;100954.13;4747496;29;20050;-72
2024/03/13 03:24:56;;;;;;;19.27;7.57;;;;;;;-3.19;54.00;101016.66;4779187;29;20144;-71
2024/03/13 03:27:24;;;;;;;17.08;7.25;;;;;;;-3.50;53.98;100973.91;4782615;29;20049;-70
2024/03/13 03:29:51;;;;;;;14.45;6.45;;;;;;;-3.21;54.19;101026.75;4765093;29;20183;-72
2024/03/13 03:32:24;;;;;;;18.38;8.75;;;;;;;-3.26;53.67;101019.59;4750058;29;20452;-74
2024/03/13 03:34:50;;;;;;;23.30;9.02;;;;;;;-3.53;53.72;101001.69;4770492;29;20088;-71
2024/03/13 03:37:17;;;;;;;17.35;7.95;;;;;;;-3.49;54.19;101026.56;4756438;29;20573;-73
2024/03/13 03:39:44;;;;;;;15.15;7.15;;;;;;;-3.74;53.77;101012.19;4781580;30;20046;-71
2024/03/13 03:42:10;;;;;;;20.60;8.07;;;;;;;-3.69;54.16;100993.03;4766447;30;20042;-71
2024/03/13 03:44:36;;;;;;;20.63;8.77;;;;;;;-3.69;53.95;100992.13;4768618;30;20139;-72
2024/03/13 03:47:02;;;;;;;16.23;7.93;;;;;;;-3.61;54.05;101013.91;4780664;29;20047;-71
2024/03/13 03:49:28;;;;;;;20.70;8.23;;;;;;;-3.78;53.71;101000.03;4760364;30;20053;-71
2024/03/13 03:51:54;;;;;;;15.48;7.35;;;;;;;-3.96;53.65;100992.00;4767630;30;20094;-69
2024/03/13 03:54:21;;;;;;;16.00;7.10;;;;;;;-4.05;53.73;100993.94;4795478;29;20058;-71
2024/03/13 03:56:48;;;;;;;26.83;7.85;;;;;;;-4.42;53.36;100943.97;4764639;30;20044;-71
2024/03/13 03:59:14;;;;;;;18.25;8.15;;;;;;;-3.85;53.98;101029.25;4772037;29;20047;-69
2024/03/13 04:01:41;;;;;;;20.38;7.13;;;;;;;-4.17;54.06;100983.81;4781743;29;20133;-72
2024/03/13 04:04:07;;;;;;;19.02;6.95;;;;;;;-3.97;53.81;101003.84;4782101;29;20480;-71
2024/03/13 04:06:34;;;;;;;20.58;6.88;;;;;;;-3.83;54.33;101036.97;4797177;29;20047;-70
2024/03/13 04:09:14;;;;;;;17.58;7.85;;;;;;;-4.11;53.98;100989.31;4767299;29;20043;-70
2024/03/13 04:11:44;;;;;;;14.73;6.28;;;;;;;-3.90;54.71;100989.03;4781845;29;20084;-70
2024/03/13 04:14:11;;;;;;;17.25;6.88;;;;;;;-3.67;53.70;101034.75;4812455;29;20187;-70
2024/03/13 04:16:43;;;;;;;16.00;7.32;;;;;;;-3.58;54.33;101021.75;4770835;29;20047;-69
2024/03/13 04:19:10;;;;;;;18.33;8.30;;;;;;;-3.51;53.94;101030.69;4796965;29;20047;-71
2024/03/13 04:21:38;;;;;;;16.80;7.63;;;;;;;-3.68;53.97;100993.91;4795998;29;20110;-71
2024/03/13 04:24:07;;;;;;;16.85;6.88;;;;;;;-3.50;54.02;101027.34;4797612;29;20047;-72
2024/03/13 04:26:40;;;;;;;25.60;8.05;;;;;;;-3.67;54.12;100994.03;4798393;29;20058;-72
2024/03/13 04:29:06;;;;;;;13.85;7.07;;;;;;;-3.80;53.74;100976.16;4781962;29;20055;-70
2024/03/13 04:31:33;;;;;;;14.07;6.60;;;;;;;-3.67;53.85;100982.94;4797664;29;20125;-71
2024/03/13 04:34:00;;;;;;;38.65;17.23;;;;;;;-3.35;53.68;101002.91;4786346;29;20124;-70
2024/03/13 04:36:26;;;;;;;15.77;7.78;;;;;;;-2.88;53.53;101028.88;4799218;29;20051;-70
2024/03/13 04:38:52;;;;;;;16.15;7.18;;;;;;;-2.52;53.51;101011.63;4811736;29;20050;-70
2024/03/13 04:41:18;;;;;;;13.40;6.50;;;;;;;-1.86;53.09;101030.13;4782320;29;20461;-70
2024/03/13 04:43:48;;;;;;;17.33;7.70;;;;;;;-1.54;52.92;101028.66;4800148;29;20176;-70
2024/03/13 04:46:17;;;;;;;14.43;7.63;;;;;;;-1.84;53.11;100920.53;4812717;29;20057;-70
2024/03/13 04:48:47;;;;;;;13.75;7.47;;;;;;;-0.78;52.63;101029.63;4796841;29;20088;-70
2024/03/13 04:51:16;;;;;;;16.13;8.38;;;;;;;0.03;52.63;101000.72;4797580;29;20090;-69
2024/03/13 04:53:45;;;;;;;15.77;6.60;;;;;;;1.74;51.79;100982.66;4800074;29;20047;-69
2024/03/13 04:56:12;;;;;;;12.95;6.85;;;;;;;3.37;49.94;101009.25;4803668;29;20053;-70
2024/03/13 04:58:38;;;;;;;13.55;6.38;;;;;;;4.36;49.52;100945.94;4783585;29;20054;-71
2024/03/13 05:01:04;;;;;;;13.13;6.90;;;;;;;6.05;47.22;101002.03;4799007;29;20070;-70
2024/03/13 05:03:30;;;;;;;10.90;6.45;;;;;;;7.06;46.26;100948.63;4777262;29;20107;-72
2024/03/13 05:05:57;;;;;;;13.27;6.43;;;;;;;8.61;44.40;100984.72;4800425;29;20066;-71
2024/03/13 05:08:24;;;;;;;14.48;7.05;;;;;;;9.86;42.14;100971.03;4798244;29;20053;-73
2024/03/13 05:10:50;;;;;;;11.75;6.63;;;;;;;11.06;40.10;100983.56;4795426;29;20042;-72
2024/03/13 05:13:16;;;;;;;12.25;6.80;;;;;;;11.86;38.81;100984.94;4796346;29;20095;-74
2024/03/13 05:15:43;;;;;;;9.85;6.20;;;;;;;12.39;37.32;100953.84;4769121;29;20058;-73
2024/03/13 05:18:09;;;;;;;14.30;6.32;;;;;;;11.93;36.19;100955.41;4771165;29;20134;-72
2024/03/13 05:20:36;;;;;;;11.13;6.53;;;;;;;11.86;35.98;100964.06;4796205;29;20145;-71
2024/03/13 05:23:06;;;;;;;10.75;6.07;;;;;;;12.47;35.34;100978.19;4812037;29;20386;-71
2024/03/13 05:25:33;;;;;;;10.75;6.38;;;;;;;13.26;34.70;100959.94;4781029;29;20597;-71
2024/03/13 05:27:59;;;;;;;14.40;6.25;;;;;;;14.27;32.84;100973.59;4796604;29;20038;-72
2024/03/13 05:30:25;;;;;;;9.52;5.90;;;;;;;15.13;32.48;100958.16;4796944;29;20096;-72
2024/03/13 05:32:51;;;;;;;11.02;6.30;;;;;;;15.98;30.67;100948.50;4811345;29;20274;-72
2024/03/13 05:35:17;;;;;;;11.40;6.25;;;;;;;16.79;30.47;100973.56;4784779;29;20527;-73
2024/03/13 05:37:46;;;;;;;8.55;6.07;;;;;;;17.53;29.26;100946.00;4786674;29;20420;-71
2024/03/13 05:40:19;;;;;;;8.43;6.03;;;;;;;18.66;28.44;100967.28;4793967;29;20046;-73
2024/03/13 05:42:46;;;;;;;11.48;6.40;;;;;;;19.44;27.19;100923.13;4770204;29;20050;-70
2024/03/13 05:45:15;;;;;;;9.05;6.00;;;;;;;20.45;26.49;100931.59;4783186;29;20051;-70
2024/03/13 05:47:42;;;;;;;8.60;6.13;;;;;;;21.51;25.42;100928.03;4796796;29;20046;-72
2024/03/13 05:50:12;;;;;;;8.82;5.85;;;;;;;22.15;24.35;100907.09;4810852;29;20050;-71
2024/03/13 05:52:38;;;;;;;8.65;5.68;;;;;;;22.97;23.52;100952.38;4779580;29;20411;-70
2024/03/13 05:55:05;;;;;;;11.43;5.80;;;;;;;23.75;23.33;100938.41;4810270;29;20047;-72
2024/03/13 05:57:31;;;;;;;9.68;5.97;;;;;;;24.56;22.11;100927.50;4800192;29;20414;-71
2024/03/13 05:59:58;;;;;;;7.75;6.07;;;;;;;25.18;21.44;100920.84;4790899;29;20059;-71
2024/03/13 06:02:25;;;;;;;10.43;5.85;;;;;;;25.46;21.05;100944.25;4750866;30;20045;-72
2024/03/13 06:05:02;;;;;;;11.38;6.30;;;;;;;25.78;20.02;100949.63;4791110;29;20477;-71
2024/03/13 06:07:32;;;;;;;8.02;5.25;;;;;;;26.33;19.93;100936.84;4776261;30;20556;-70
2024/03/13 06:10:05;;;;;;;8.15;6.00;;;;;;;26.71;19.55;100928.41;4772684;29;20202;-72
2024/03/13 06:12:33;;;;;;;11.30;5.95;;;;;;;27.23;18.95;100936.97;4773981;29;20150;-70
2024/03/13 06:15:00;;;;;;;8.68;5.72;;;;;;;27.71;18.48;100938.47;4778258;29;20323;-72
2024/03/13 06:17:29;;;;;;;10.32;6.30;;;;;;;28.05;18.16;100947.03;4774662;29;20545;-71
2024/03/13 06:19:55;;;;;;;9.80;6.80;;;;;;;28.22;17.80;100943.31;4771797;29;20576;-69
2024/03/13 06:22:22;;;;;;;8.93;6.95;;;;;;;27.95;17.27;100944.94;4775540;30;20047;-69
2024/03/13 06:24:48;;;;;;;8.85;6.35;;;;;;;27.71;16.79;100914.44;4776299;30;20040;-72
2024/03/13 06:27:15;;;;;;;11.88;6.35;;;;;;;27.86;17.01;100904.56;4769238;30;20747;-71
2024/03/13 06:30:04;;;;;;;9.00;6.30;;;;;;;28.46;16.94;100930.13;4755519;30;20043;-72
2024/03/13 06:32:35;;;;;;;8.35;5.68;;;;;;;28.71;16.72;100953.41;4757687;29;20165;-70
2024/03/13 06:35:05;;;;;;;9.85;6.38;;;;;;;29.27;16.40;100946.09;4774701;29;20039;-71
2024/03/13 06:37:31;;;;;;;9.70;6.35;;;;;;;29.54;16.03;100935.31;4763221;30;20104;-70
2024/03/13 06:39:58;;;;;;;8.23;6.20;;;;;;;29.07;15.32;100956.38;4762513;30;20051;-70
2024/03/13 06:42:25;;;;;;;10.18;6.30;;;;;;;29.33;15.83;100959.06;4788177;29;20082;-70
2024/03/13 06:44:51;;;;;;;11.23;6.68;;;;;;;29.71;15.75;100955.53;4772349;29;21734;-71
2024/03/13 06:47:18;;;;;;;11.60;5.72;;;;;;;30.09;15.47;100944.84;4777577;29;20051;-73
2024/03/13 06:49:47;;;;;;;9.15;5.70;;;;;;;30.63;15.07;100960.50;4772887;30;20073;-73
2024/03/13 06:52:13;;;;;;;7.20;5.53;;;;;;;31.09;14.63;100957.94;4743728;30;20191;-74
2024/03/13 06:54:40;;;;;;;9.85;5.85;;;;;;;31.27;14.61;100958.38;4772763;29;20134;-72
2024/03/13 06:57:09;;;;;;;9.82;5.68;;;;;;;31.43;14.40;100932.97;4778612;30;20047;-73
2024/03/13 06:59:39;;;;;;;8.93;5.05;;;;;;;31.53;13.99;100956.31;4778330;29;20157;-75
2024/03/13 07:02:06;;;;;;;9.80;5.68;;;;;;;31.70;14.49;100946.03;4807048;29;20050;-70
2024/03/13 07:04:33;;;;;;;6.45;5.13;;;;;;;32.36;14.56;100955.13;4793520;29;20142;-74
2024/03/13 07:06:59;;;;;;;7.07;5.05;;;;;;;32.55;14.08;100941.00;4793663;29;20130;-72
2024/03/13 07:09:26;;;;;;;7.30;5.70;;;;;;;32.75;13.58;100936.59;4792304;29;20086;-74
2024/03/13 07:11:52;;;;;;;7.50;5.30;;;;;;;33.26;13.47;100978.06;4809055;29;20103;-75
2024/03/13 07:14:18;;;;;;;7.38;5.07;;;;;;;33.62;13.38;100969.59;4794764;29;20111;-76
2024/03/13 07:16:45;;;;;;;7.00;5.78;;;;;;;34.05;13.31;100981.97;4779865;29;20051;-69
2024/03/13 07:19:12;;;;;;;12.02;5.78;;;;;;;34.67;12.87;100978.22;4789040;29;20051;-71
2024/03/13 07:21:38;;;;;;;8.23;5.40;;;;;;;35.23;13.18;100959.50;4803809;29;20047;-70
2024/03/13 07:24:05;;;;;;;10.85;5.72;;;;;;;35.74;13.10;100963.59;4785759;29;20039;-68
2024/03/13 07:26:34;;;;;;;8.80;5.90;;;;;;;36.23;12.41;100970.56;4785735;29;20055;-69
2024/03/13 07:29:01;;;;;;;9.20;5.85;;;;;;;36.09;12.31;100944.00;4792765;29;20075;-69
2024/03/13 07:31:30;;;;;;;7.22;5.60;;;;;;;35.62;11.78;100956.69;4802466;29;20146;-68
2024/03/13 07:33:57;;;;;;;11.45;6.45;;;;;;;35.65;12.33;100953.66;4778621;29;20047;-69
2024/03/13 07:36:23;;;;;;;9.60;6.38;;;;;;;35.53;12.15;100974.63;4779375;29;20070;-66
2024/03/13 07:38:49;;;;;;;9.38;6.07;;;;;;;35.51;12.43;100959.56;4791684;29;20050;-68
2024/03/13 07:41:16;;;;;;;10.35;5.75;;;;;;;35.62;12.19;100956.69;4793441;29;20161;-70
2024/03/13 07:43:43;;;;;;;8.43;5.43;;;;;;;35.09;11.78;100968.94;4775547;29;20054;-67
2024/03/13 07:46:11;;;;;;;6.60;5.10;;;;;;;34.53;12.25;100961.47;4789156;29;20047;-67
2024/03/13 07:48:37;;;;;;;8.77;5.50;;;;;;;34.31;12.34;100951.75;4790875;29;20220;-68
2024/03/13 07:51:09;;;;;;;5.57;4.88;;;;;;;33.77;12.11;100954.72;4795916;29;20594;-72
2024/03/13 07:53:36;;;;;;;7.60;5.03;;;;;;;33.42;12.26;100960.59;4791373;29;20053;-72
2024/03/13 07:56:03;;;;;;;9.52;5.03;;;;;;;33.13;12.47;100959.41;4770080;29;20039;-69
2024/03/13 07:58:29;;;;;;;5.32;4.68;;;;;;;32.98;12.47;100969.69;4795569;29;20042;-71
2024/03/13 08:00:55;;;;;;;7.03;4.50;;;;;;;32.87;12.26;100967.03;4797937;29;20059;-69
2024/03/13 08:03:21;;;;;;;7.97;5.05;;;;;;;32.41;12.49;100971.75;4796711;29;20094;-71
2024/03/13 08:05:49;;;;;;;9.43;5.15;;;;;;;32.54;12.74;100961.66;4791120;29;20047;-72
2024/03/13 08:08:15;;;;;;;6.70;5.00;;;;;;;32.88;12.59;100921.09;4789830;29;20054;-72
2024/03/13 08:10:41;;;;;;;6.80;5.00;;;;;;;33.17;12.82;100941.97;4789725;29;20448;-73
2024/03/13 08:13:08;;;;;;;8.75;4.40;;;;;;;33.60;12.80;100967.06;4777578;29;20059;-72
2024/03/13 08:15:34;;;;;;;6.68;4.18;;;;;;;34.35;13.00;100963.09;4788244;29;20043;-71
2024/03/13 08:18:00;;;;;;;5.80;3.88;;;;;;;34.85;12.74;100954.03;4772223;29;20057;-73
2024/03/13 08:20:26;;;;;;;6.32;3.45;;;;;;;34.35;11.57;100979.31;4753217;29;20047;-74
2024/03/13 08:22:53;;;;;;;7.85;3.35;;;;;;;33.56;12.08;100972.81;4790522;29;20053;-68
2024/03/13 08:25:22;;;;;;;3.05;2.72;;;;;;;32.90;12.57;100962.22;4791619;29;20383;-76
2024/03/13 08:27:48;;;;;;;5.68;3.63;;;;;;;32.38;12.48;100954.00;4765393;29;20664;-78
2024/03/13 08:30:20;;;;;;;5.30;3.55;;;;;;;32.20;12.51;100950.13;4774413;29;20039;-72
2024/03/13 08:32:48;;;;;;;5.70;4.07;;;;;;;32.06;12.51;100973.66;4761655;29;20062;-70
2024/03/13 08:35:15;;;;;;;5.03;3.70;;;;;;;32.28;12.99;100953.09;4786600;29;20762;-77
2024/03/13 08:37:47;;;;;;;5.63;3.95;;;;;;;32.41;12.74;100939.44;4775673;29;20426;-71
2024/03/13 08:40:13;;;;;;;6.35;4.30;;;;;;;32.66;12.98;100935.53;4774759;29;20577;-74
2024/03/13 08:42:40;;;;;;;7.07;4.50;;;;;;;33.42;13.17;100926.38;4782298;29;20478;-70
2024/03/13 08:45:16;;;;;;;4.63;3.78;;;;;;;33.93;12.87;100961.50;4790504;29;20039;-72
2024/03/13 08:47:42;;;;;;;7.03;3.92;;;;;;;34.15;12.56;100929.84;4807208;29;20091;-72
2024/03/13 08:50:08;;;;;;;6.50;4.20;;;;;;;34.06;12.50;100963.94;4782560;29;20046;-71
2024/03/13 08:52:37;;;;;;;6.60;4.05;;;;;;;33.14;12.05;100977.28;4781843;29;20147;-70
2024/03/13 08:55:05;;;;;;;7.10;4.03;;;;;;;33.32;12.98;100945.16;4806291;29;20042;-74
2024/03/13 08:57:31;;;;;;;7.63;4.00;;;;;;;34.01;12.69;100971.59;4790393;29;20051;-73
2024/03/13 08:59:57;;;;;;;8.73;4.60;;;;;;;34.04;12.49;100957.81;4790459;29;20047;-71
2024/03/13 09:02:25;;;;;;;6.32;3.67;;;;;;;33.31;11.98;100945.31;4780722;29;20085;-70
2024/03/13 09:04:51;;;;;;;10.35;4.00;;;;;;;32.64;12.14;100955.50;4781512;29;21912;-68
2024/03/13 09:07:17;;;;;;;5.70;3.92;;;;;;;32.11;12.98;100968.72;4742980;29;20137;-69
2024/03/13 09:09:43;;;;;;;4.80;4.30;;;;;;;31.22;12.97;100942.63;4765525;29;20039;-70
2024/03/13 09:12:13;;;;;;;6.13;4.25;;;;;;;31.62;13.18;100932.34;4777780;29;20540;-70
2024/03/13 09:14:39;;;;;;;6.40;4.38;;;;;;;31.88;12.53;100949.09;4762116;29;20043;-72
2024/03/13 09:17:12;;;;;;;4.57;4.13;;;;;;;31.36;12.69;100940.69;4771901;29;20039;-65
2024/03/13 09:19:39;;;;;;;5.82;4.28;;;;;;;30.22;12.42;100934.06;4788041;29;20128;-68
2024/03/13 09:22:07;;;;;;;5.63;4.70;;;;;;;30.45;13.16;100935.03;4786874;29;20451;-72
2024/03/13 09:24:35;;;;;;;5.82;4.50;;;;;;;29.46;12.67;100933.16;4785712;29;20051;-69
2024/03/13 09:27:01;;;;;;;4.45;4.05;;;;;;;29.25;13.72;100942.66;4780383;29;20346;-70
2024/03/13 09:29:29;;;;;;;4.82;3.67;;;;;;;28.79;13.68;100931.53;4783809;29;20047;-72
2024/03/13 09:31:55;;;;;;;4.47;3.80;;;;;;;29.11;14.10;100930.25;4785381;29;20848;-70
2024/03/13 09:34:21;;;;;;;8.77;4.28;;;;;;;29.72;13.93;100932.25;4788642;29;20055;-69
2024/03/13 09:36:47;;;;;;;5.20;4.22;;;;;;;29.26;13.49;100929.19;4766024;29;20039;-72
2024/03/13 09:39:15;;;;;;;4.43;3.67;;;;;;;28.92;13.44;100931.50;4789560;29;20625;-73
2024/03/13 09:41:43;;;;;;;6.65;4.07;;;;;;;28.74;14.15;100928.28;4756925;29;20074;-73
2024/03/13 09:44:11;;;;;;;4.43;4.03;;;;;;;28.21;14.10;100907.66;4796712;29;20043;-73
2024/03/13 09:46:42;;;;;;;4.72;4.32;;;;;;;28.16;14.18;100936.50;4764053;29;20046;-72
2024/03/13 09:49:09;;;;;;;5.22;4.10;;;;;;;28.35;14.84;100925.47;4790270;29;20126;-76
2024/03/13 09:51:36;;;;;;;7.10;4.20;;;;;;;28.06;14.54;100922.84;4789766;29;20150;-75
2024/03/13 09:54:04;;;;;;;5.20;3.90;;;;;;;28.30;14.62;100932.94;4803695;29;20055;-75
2024/03/13 09:56:30;;;;;;;5.10;4.10;;;;;;;28.75;14.87;100940.72;4795708;29;20035;-73
2024/03/13 09:58:56;;;;;;;5.68;4.40;;;;;;;28.71;14.21;100891.81;4772304;29;20410;-73
2024/03/13 10:01:26;;;;;;;7.10;4.10;;;;;;;29.03;14.31;100890.59;4779791;29;20050;-72
2024/03/13 10:04:10;;;;;;;6.18;4.70;;;;;;;29.56;14.07;100937.88;4795798;29;20047;-74
2024/03/13 10:06:39;;;;;;;4.45;3.90;;;;;;;28.74;13.94;100920.25;4796704;29;20043;-74
2024/03/13 10:09:14;;;;;;;4.70;4.20;;;;;;;28.69;14.48;100898.25;4767642;29;20050;-73
2024/03/13 10:11:46;;;;;;;6.40;4.00;;;;;;;29.29;14.58;100853.06;4788087;29;20058;-72
2024/03/13 10:14:13;;;;;;;5.13;4.13;;;;;;;29.38;14.13;100873.88;4775620;29;20059;-73
2024/03/13 10:16:52;;;;;;;5.65;4.10;;;;;;;28.99;13.71;100881.91;4795224;29;20046;-73
2024/03/13 10:19:24;;;;;;;6.68;3.90;;;;;;;28.11;14.17;100899.38;4776455;29;20050;-72
2024/03/13 10:21:53;;;;;;;6.32;4.65;;;;;;;26.14;13.90;100897.03;4791906;29;20038;-72
2024/03/13 10:24:22;;;;;;;6.00;4.35;;;;;;;23.37;15.29;100903.84;4803759;29;20054;-75
2024/03/13 10:26:50;;;;;;;5.68;3.95;;;;;;;21.49;15.92;100933.38;4781708;29;20054;-72
2024/03/13 10:29:18;;;;;;;4.22;3.83;;;;;;;19.72;16.93;100925.00;4787283;29;20050;-72
2024/03/13 10:31:44;;;;;;;6.72;4.20;;;;;;;18.04;17.84;100937.09;4789332;29;20061;-75
2024/03/13 10:34:10;;;;;;;5.78;4.20;;;;;;;16.94;18.55;100920.78;4788114;29;20070;-74
2024/03/13 10:36:40;;;;;;;7.10;4.03;;;;;;;16.13;19.27;100941.28;4796010;29;20398;-74
2024/03/13 10:39:08;;;;;;;7.38;3.90;;;;;;;15.20;20.21;100917.00;4772450;29;20054;-73
2024/03/13 10:41:34;;;;;;;5.40;3.85;;;;;;;14.27;21.06;100946.53;4783768;29;20058;-73
2024/03/13 10:44:00;;;;;;;6.32;4.00;;;;;;;13.61;21.48;100948.56;4791244;29;20410;-74
2024/03/13 10:46:26;;;;;;;6.30;3.90;;;;;;;12.84;22.56;100928.63;4774659;29;20083;-74
2024/03/13 10:48:54;;;;;;;6.60;3.85;;;;;;;12.69;22.66;100957.38;4771359;29;20054;-74
2024/03/13 10:51:21;;;;;;;4.80;3.50;;;;;;;12.37;23.02;100950.34;4787764;29;20054;-73
2024/03/13 10:53:47;;;;;;;5.47;3.83;;;;;;;12.04;23.64;100947.66;4770260;29;20039;-81
2024/03/13 10:56:18;;;;;;;4.68;3.60;;;;;;;11.21;23.71;100880.31;4786719;29;20525;-83
2024/03/13 10:58:46;;;;;;;4.60;3.63;;;;;;;10.91;24.51;100900.13;4785860;29;20051;-78
2024/03/13 11:01:25;;;;;;;5.18;4.10;;;;;;;10.72;24.39;100918.19;4800809;29;20050;-74
2024/03/13 11:04:13;;;;;;;5.30;3.33;;;;;;;10.20;25.38;100893.41;4795467;29;20046;-73
2024/03/13 11:06:43;;;;;;;5.68;3.70;;;;;;;9.91;25.95;100883.56;4799455;29;20192;-73
2024/03/13 11:09:21;;;;;;;6.03;3.42;;;;;;;10.09;26.40;100928.81;4784910;29;20799;-73
2024/03/13 11:11:51;;;;;;;4.97;3.78;;;;;;;9.54;26.70;100862.34;4799372;29;20045;-72
2024/03/13 11:14:20;;;;;;;5.30;3.58;;;;;;;9.32;26.68;100913.13;4779854;29;20066;-73
2024/03/13 11:16:51;;;;;;;6.35;3.90;;;;;;;9.11;27.47;100942.28;4800509;29;20046;-72
2024/03/13 11:19:21;;;;;;;4.78;3.50;;;;;;;8.75;27.96;100936.50;4765806;29;20055;-76
2024/03/13 11:22:03;;;;;;;6.70;3.92;;;;;;;8.61;28.27;100956.16;4780485;29;20042;-76
2024/03/13 11:24:31;;;;;;;5.32;3.47;;;;;;;8.03;28.30;100911.00;4798264;29;20548;-75
2024/03/13 11:27:20;;;;;;;9.77;6.75;;;;;;;7.62;28.74;100869.56;4795531;29;20101;-75
2024/03/13 11:29:49;;;;;;;12.63;8.27;;;;;;;7.99;29.10;100941.16;4801320;29;20534;-75
2024/03/13 11:32:15;;;;;;;18.48;8.48;;;;;;;7.98;29.47;100951.50;4796397;29;20082;-72
2024/03/13 11:34:42;;;;;;;10.73;6.93;;;;;;;7.68;29.83;100934.47;4780173;29;20050;-70
2024/03/13 11:37:11;;;;;;;10.15;5.90;;;;;;;7.41;29.64;100909.72;4780955;29;20093;-70
2024/03/13 11:39:39;;;;;;;6.95;4.68;;;;;;;7.41;30.20;100938.19;4795893;29;20145;-74
2024/03/13 11:42:14;;;;;;;9.60;4.60;;;;;;;7.24;30.34;100932.66;4810942;29;20046;-73
2024/03/13 11:44:44;;;;;;;8.43;4.55;;;;;;;7.06;30.50;100900.31;4807327;29;20058;-73
2024/03/13 11:47:11;;;;;;;3.55;2.63;;;;;;;6.93;30.43;100890.53;4785461;29;20043;-73